Time;durP1;ratioP1;P1;durP2;ratioP2;P2;SDS_P1;SDS_P2;PMS_P1;PMS_P2;Temp;Humidity;BMP_temperature;BMP_pressure;BME280_temperature;BME280_humidity;BME280_pressure;Samples;Min_cycle;Max_cycle;Signal;HPM_P1;HPM_P2
2021/06/24 00:01:10;;;;;;;10.02;5.50;;;;;;;13.32;nan;102058.97;5063025;28;20024;-88
2021/06/24 00:03:39;;;;;;;8.38;4.85;;;;;;;13.40;nan;102072.06;5066165;28;20024;-87
2021/06/24 00:06:05;;;;;;;7.50;3.90;;;;;;;13.46;nan;102067.63;5073835;28;20031;-87
2021/06/24 00:08:34;;;;;;;7.55;4.10;;;;;;;13.49;nan;102068.00;5067455;28;20032;-88
2021/06/24 00:11:01;;;;;;;26.00;5.45;;;;;;;13.54;nan;102075.34;5070621;28;20016;-89
2021/06/24 00:13:28;;;;;;;14.65;4.80;;;;;;;13.50;nan;102066.94;5054098;28;20564;-89
2021/06/24 00:15:54;;;;;;;8.30;5.03;;;;;;;13.45;nan;102066.78;5073196;28;20047;-90
2021/06/24 00:18:21;;;;;;;8.57;4.88;;;;;;;13.41;nan;102065.63;5057867;28;20028;-89
2021/06/24 00:20:53;;;;;;;8.35;4.90;;;;;;;13.37;nan;102059.09;5057673;28;20016;-89
2021/06/24 00:23:19;;;;;;;6.80;4.18;;;;;;;13.22;nan;102050.66;5058034;28;20058;-89
2021/06/24 00:25:45;;;;;;;7.53;5.15;;;;;;;12.94;nan;102054.00;5074223;28;20042;-89
2021/06/24 00:28:15;;;;;;;9.65;4.70;;;;;;;13.04;nan;102048.88;5057312;28;20476;-89
2021/06/24 00:30:40;;;;;;;7.47;5.78;;;;;;;12.96;nan;102050.03;5074473;28;20036;-89
2021/06/24 00:33:08;;;;;;;9.27;5.68;;;;;;;13.05;nan;102039.72;5074367;28;20444;-90
2021/06/24 00:35:34;;;;;;;8.95;5.30;;;;;;;13.16;nan;102040.81;5074397;28;20111;-89
2021/06/24 00:38:00;;;;;;;7.45;4.82;;;;;;;13.20;nan;102042.00;5074067;28;20143;-89
2021/06/24 00:40:28;;;;;;;7.60;5.10;;;;;;;13.18;nan;102044.13;5057291;28;20498;-90
2021/06/24 00:42:54;;;;;;;7.95;4.63;;;;;;;13.17;nan;102040.56;5057144;28;20028;-88
2021/06/24 00:45:19;;;;;;;8.45;4.90;;;;;;;13.17;nan;102037.06;5058292;28;20028;-88
2021/06/24 00:47:45;;;;;;;6.20;4.78;;;;;;;13.18;nan;102033.34;5088735;28;20505;-89
2021/06/24 00:50:12;;;;;;;5.57;4.53;;;;;;;13.18;nan;102030.66;5094420;28;20020;-89
2021/06/24 00:52:39;;;;;;;8.98;4.75;;;;;;;13.16;nan;102036.25;5094243;28;20024;-89
2021/06/24 00:55:05;;;;;;;10.18;5.20;;;;;;;13.17;nan;102031.69;5094412;28;20499;-90
2021/06/24 00:57:32;;;;;;;8.40;5.20;;;;;;;13.15;nan;102033.78;5094134;28;20028;-91
2021/06/24 00:59:58;;;;;;;7.68;5.15;;;;;;;13.14;nan;102032.97;5094039;28;20020;-89
2021/06/24 01:02:24;;;;;;;6.78;4.90;;;;;;;13.08;nan;102027.69;5093860;28;20477;-89
2021/06/24 01:04:50;;;;;;;8.15;5.47;;;;;;;13.06;nan;102036.00;5094014;28;20045;-90
2021/06/24 01:07:16;;;;;;;6.72;4.93;;;;;;;13.08;nan;102030.38;5094496;28;20028;-89
2021/06/24 01:09:42;;;;;;;8.40;5.65;;;;;;;13.10;nan;102030.94;5083011;28;20474;-89
2021/06/24 01:12:09;;;;;;;8.10;5.43;;;;;;;13.08;nan;102035.75;5076807;28;20020;-89
2021/06/24 01:14:35;;;;;;;9.95;5.07;;;;;;;13.03;nan;102031.06;5076823;28;20032;-89
2021/06/24 01:17:01;;;;;;;9.68;6.28;;;;;;;13.01;nan;102044.78;5077032;28;20428;-89
2021/06/24 01:19:27;;;;;;;10.35;6.10;;;;;;;12.99;nan;102048.75;5076482;28;20024;-89
2021/06/24 01:21:53;;;;;;;8.32;4.90;;;;;;;13.00;nan;102056.59;5077103;28;20016;-88
2021/06/24 01:24:22;;;;;;;7.72;5.28;;;;;;;12.99;nan;102059.50;5077139;28;20127;-88
2021/06/24 01:26:51;;;;;;;9.18;5.30;;;;;;;13.01;nan;102066.28;5075684;28;20593;-88
2021/06/24 01:29:17;;;;;;;11.85;6.53;;;;;;;12.99;nan;102068.41;5076705;28;20028;-89
2021/06/24 01:31:43;;;;;;;12.25;5.35;;;;;;;13.01;nan;102077.06;5076514;28;20024;-89
2021/06/24 01:34:10;;;;;;;8.15;5.72;;;;;;;12.97;nan;102081.25;5076469;28;20417;-88
2021/06/24 01:36:36;;;;;;;8.07;5.57;;;;;;;12.94;nan;102097.06;5076826;28;20102;-89
2021/06/24 01:39:05;;;;;;;9.57;5.60;;;;;;;12.89;nan;102088.84;5076225;28;20528;-89
2021/06/24 01:41:31;;;;;;;8.68;5.57;;;;;;;12.88;nan;102079.94;5076486;28;20028;-89
2021/06/24 01:43:57;;;;;;;12.10;6.18;;;;;;;12.90;nan;102083.22;5075909;28;20056;-89
2021/06/24 01:46:22;;;;;;;9.98;5.85;;;;;;;12.91;nan;102081.34;5076009;28;20035;-89
2021/06/24 01:48:49;;;;;;;10.13;5.57;;;;;;;12.90;nan;102085.09;5076192;28;20027;-89
2021/06/24 01:51:15;;;;;;;6.65;5.18;;;;;;;12.91;nan;102082.16;5075994;28;20401;-88
2021/06/24 01:53:43;;;;;;;7.35;5.18;;;;;;;12.92;nan;102080.28;5076321;28;20024;-88
2021/06/24 01:56:09;;;;;;;8.20;5.97;;;;;;;12.92;nan;102086.50;5076212;28;20168;-89
2021/06/24 01:58:36;;;;;;;10.45;5.50;;;;;;;12.92;nan;102078.44;5075849;28;20118;-89
2021/06/24 02:01:02;;;;;;;7.35;5.70;;;;;;;12.95;nan;102101.38;5076292;28;20473;-90
2021/06/24 02:03:28;;;;;;;10.95;5.90;;;;;;;12.96;nan;102085.00;5076804;28;20016;-89
2021/06/24 02:05:56;;;;;;;9.55;5.75;;;;;;;12.98;nan;102082.91;5078836;28;20500;-89
2021/06/24 02:08:27;;;;;;;10.27;6.30;;;;;;;12.97;nan;102080.44;5077049;28;20055;-89
2021/06/24 02:10:55;;;;;;;6.80;5.35;;;;;;;13.00;nan;102085.34;5076281;28;20117;-89
2021/06/24 02:13:20;;;;;;;7.47;5.43;;;;;;;13.00;nan;102078.09;5091419;28;20404;-91
2021/06/24 02:15:46;;;;;;;8.90;6.20;;;;;;;13.00;nan;102080.78;5084669;28;20066;-90
2021/06/24 02:18:12;;;;;;;9.48;5.50;;;;;;;13.07;nan;102069.91;5076070;28;20028;-89
2021/06/24 02:20:38;;;;;;;8.23;5.70;;;;;;;13.12;nan;102077.31;5075709;28;20050;-88
2021/06/24 02:23:08;;;;;;;9.85;6.50;;;;;;;13.13;nan;102078.94;5075434;28;20036;-89
2021/06/24 02:25:34;;;;;;;12.93;6.70;;;;;;;13.15;nan;102076.84;5075364;28;20020;-90
2021/06/24 02:28:00;;;;;;;10.27;6.55;;;;;;;13.17;nan;102083.63;5075426;28;20553;-89
2021/06/24 02:30:29;;;;;;;11.57;7.03;;;;;;;13.19;nan;102078.03;5074902;28;20059;-89
2021/06/24 02:32:55;;;;;;;10.43;6.22;;;;;;;13.24;nan;102064.69;5075560;28;20024;-89
2021/06/24 02:35:21;;;;;;;10.80;6.70;;;;;;;13.28;nan;102065.88;5075178;28;20550;-89
2021/06/24 02:37:48;;;;;;;9.05;5.90;;;;;;;13.29;nan;102062.97;5074318;28;20023;-88
2021/06/24 02:40:15;;;;;;;10.90;6.78;;;;;;;13.27;nan;102059.66;5073955;28;20024;-89
2021/06/24 02:42:42;;;;;;;8.60;6.55;;;;;;;13.31;nan;102054.66;5073876;28;20058;-89
2021/06/24 02:45:10;;;;;;;9.35;5.85;;;;;;;13.32;nan;102053.59;5074029;28;20040;-89
2021/06/24 02:47:36;;;;;;;13.05;7.18;;;;;;;13.34;nan;102048.78;5074299;28;20028;-88
2021/06/24 02:50:06;;;;;;;11.48;6.47;;;;;;;13.35;nan;102060.38;5074461;28;20072;-89
2021/06/24 02:52:35;;;;;;;11.77;7.10;;;;;;;13.40;nan;102058.63;5074834;28;20520;-89
2021/06/24 02:55:01;;;;;;;9.07;6.75;;;;;;;13.45;nan;102066.78;5074212;28;20071;-89
2021/06/24 02:57:27;;;;;;;15.68;7.30;;;;;;;13.43;nan;102050.06;5074329;28;20048;-89
2021/06/24 02:59:52;;;;;;;12.27;7.10;;;;;;;13.45;nan;102047.94;5074305;28;20469;-89
2021/06/24 03:02:18;;;;;;;11.25;6.45;;;;;;;13.44;nan;102049.00;5074626;28;20080;-89
2021/06/24 03:04:46;;;;;;;10.13;7.10;;;;;;;13.46;nan;102046.91;5077282;28;20106;-89
2021/06/24 03:07:16;;;;;;;15.38;7.75;;;;;;;13.49;nan;102045.63;5054439;28;20028;-88
2021/06/24 03:09:52;;;;;;;;;;;;;;;;;;;;;
2021/06/24 03:12:27;;;;;;;10.60;7.05;;;;;;;13.55;nan;102042.81;5072145;28;20020;-88
2021/06/24 03:14:53;;;;;;;11.23;7.47;;;;;;;13.61;nan;102033.78;5054348;28;20025;-89
2021/06/24 03:17:19;;;;;;;14.13;7.57;;;;;;;13.63;nan;102032.72;5053949;28;20035;-90
2021/06/24 03:19:44;;;;;;;12.57;7.50;;;;;;;13.68;nan;102022.06;5084448;28;20386;-89
2021/06/24 03:22:10;;;;;;;13.88;7.38;;;;;;;13.69;nan;102012.94;5073779;28;20055;-89
2021/06/24 03:24:35;;;;;;;9.90;6.97;;;;;;;13.73;nan;102009.50;5073889;28;20539;-89
2021/06/24 03:27:01;;;;;;;12.27;6.80;;;;;;;13.74;nan;102004.94;5073742;28;20020;-89
2021/06/24 03:29:27;;;;;;;12.90;7.32;;;;;;;13.75;nan;101996.63;5074230;28;20020;-90
2021/06/24 03:31:53;;;;;;;8.88;6.75;;;;;;;13.79;nan;102002.34;5061764;28;20025;-89
2021/06/24 03:34:18;;;;;;;13.38;7.45;;;;;;;13.81;nan;101992.16;5053594;28;20028;-89
2021/06/24 03:36:44;;;;;;;10.90;6.72;;;;;;;13.84;nan;101992.50;5068223;28;20092;-90
2021/06/24 03:39:09;;;;;;;17.10;6.97;;;;;;;13.87;nan;101994.72;5075717;28;20024;-89
2021/06/24 03:41:35;;;;;;;9.68;6.65;;;;;;;13.91;nan;101989.66;5073959;28;20020;-90
2021/06/24 03:44:01;;;;;;;9.40;7.03;;;;;;;13.95;nan;101985.44;5069575;28;20025;-90
2021/06/24 03:46:36;;;;;;;9.93;7.32;;;;;;;13.96;nan;101976.28;5053819;28;20057;-90
2021/06/24 03:49:04;;;;;;;12.35;7.40;;;;;;;13.99;nan;101967.72;5053922;28;20648;-89
2021/06/24 03:51:30;;;;;;;11.25;7.10;;;;;;;14.03;nan;101976.97;5057912;28;20174;-88
2021/06/24 03:54:03;;;;;;;12.75;7.38;;;;;;;14.06;nan;101965.72;5058249;28;20020;-89
2021/06/24 03:56:29;;;;;;;10.40;7.00;;;;;;;14.10;nan;101950.69;5057702;28;20024;-89
2021/06/24 03:58:55;;;;;;;17.52;7.57;;;;;;;14.14;nan;101951.00;5057695;28;20017;-89
2021/06/24 04:01:21;;;;;;;14.55;8.18;;;;;;;14.17;nan;101951.34;5057561;28;20017;-89
2021/06/24 04:03:46;;;;;;;15.68;8.55;;;;;;;14.24;nan;101951.19;5057897;28;20485;-90
2021/06/24 04:06:12;;;;;;;13.77;8.70;;;;;;;14.29;nan;101955.84;5057569;28;20079;-89
2021/06/24 04:08:38;;;;;;;17.02;8.90;;;;;;;14.30;nan;101965.56;5064995;28;20020;-89
2021/06/24 04:11:04;;;;;;;15.30;8.90;;;;;;;14.38;nan;101967.91;5081596;28;20036;-89
2021/06/24 04:13:34;;;;;;;13.05;7.47;;;;;;;14.41;nan;101978.19;5077743;28;20518;-88
2021/06/24 04:15:59;;;;;;;21.45;8.70;;;;;;;14.46;nan;101981.00;5087974;28;20024;-89
2021/06/24 04:18:25;;;;;;;17.75;8.77;;;;;;;14.47;nan;101979.94;5094355;28;20073;-89
2021/06/24 04:20:50;;;;;;;12.82;7.93;;;;;;;14.52;nan;101986.22;5078048;28;20018;-89
2021/06/24 04:23:16;;;;;;;11.55;7.18;;;;;;;14.54;nan;101977.88;5077868;28;20489;-89
2021/06/24 04:25:42;;;;;;;13.43;7.50;;;;;;;14.58;nan;101973.66;5077676;28;20036;-89
2021/06/24 04:28:07;;;;;;;12.95;8.13;;;;;;;14.62;nan;101957.78;5058517;28;20078;-89
2021/06/24 04:30:33;;;;;;;15.27;7.95;;;;;;;14.60;nan;101951.84;5066235;28;20474;-89
2021/06/24 04:32:59;;;;;;;12.23;7.95;;;;;;;14.69;nan;101945.75;5074053;28;20027;-90
2021/06/24 04:35:26;;;;;;;15.27;8.25;;;;;;;14.73;nan;101946.94;5056974;28;20032;-89
2021/06/24 04:37:52;;;;;;;14.95;8.32;;;;;;;14.78;nan;101951.56;5057148;28;20032;-88
2021/06/24 04:40:18;;;;;;;14.25;7.38;;;;;;;14.85;nan;101948.69;5057194;28;20112;-89
2021/06/24 04:42:44;;;;;;;17.98;8.63;;;;;;;14.89;nan;101945.25;5057189;28;20032;-89
2021/06/24 04:45:21;;;;;;;;;;;;;;;;;;;;;
2021/06/24 04:47:51;;;;;;;13.75;7.82;;;;;;;15.02;nan;101947.59;5074726;28;20016;-89
2021/06/24 04:50:17;;;;;;;12.88;8.85;;;;;;;15.10;nan;101954.47;5056505;28;20044;-89
2021/06/24 04:52:43;;;;;;;13.88;7.50;;;;;;;15.18;nan;101947.81;5056643;28;20059;-89
2021/06/24 04:55:09;;;;;;;12.18;7.95;;;;;;;15.25;nan;101935.75;5056453;28;20565;-89
2021/06/24 04:57:35;;;;;;;13.57;7.13;;;;;;;15.35;nan;101930.50;5056684;28;20025;-88
2021/06/24 05:00:04;;;;;;;12.55;7.45;;;;;;;15.45;nan;101926.31;5073251;28;20055;-89
2021/06/24 05:02:30;;;;;;;16.42;8.38;;;;;;;15.53;nan;101931.25;5074987;28;20035;-89
2021/06/24 05:04:56;;;;;;;12.38;8.10;;;;;;;15.61;nan;101933.53;5076380;28;20111;-89
2021/06/24 05:07:27;;;;;;;16.20;8.50;;;;;;;15.60;nan;101927.31;5076414;28;20027;-89
2021/06/24 05:09:52;;;;;;;16.65;8.70;;;;;;;15.66;nan;101929.03;5076258;28;20028;-89
2021/06/24 05:12:18;;;;;;;16.15;8.68;;;;;;;15.67;nan;101922.56;5076424;28;20477;-89
2021/06/24 05:14:43;;;;;;;19.55;9.40;;;;;;;15.55;nan;101921.00;5076268;28;20038;-89
2021/06/24 05:17:14;;;;;;;23.15;10.35;;;;;;;15.59;nan;101914.88;5076365;28;20024;-90
2021/06/24 05:19:45;;;;;;;19.83;10.10;;;;;;;15.62;nan;101914.41;5077425;28;20024;-92
2021/06/24 05:22:11;;;;;;;21.15;10.05;;;;;;;15.69;nan;101922.28;5075986;28;20020;-89
2021/06/24 05:24:39;;;;;;;20.65;9.98;;;;;;;15.60;nan;101931.91;5075674;28;20031;-90
2021/06/24 05:27:05;;;;;;;16.95;10.18;;;;;;;15.73;nan;101946.91;5075850;28;20024;-91
2021/06/24 05:29:31;;;;;;;21.20;9.70;;;;;;;15.77;nan;101962.34;5075803;28;20028;-90
2021/06/24 05:31:57;;;;;;;16.88;9.35;;;;;;;15.79;nan;101968.31;5075802;28;20054;-89
2021/06/24 05:34:23;;;;;;;19.23;9.65;;;;;;;15.71;nan;101971.50;5076026;28;20062;-90
2021/06/24 05:36:48;;;;;;;17.23;9.45;;;;;;;15.50;nan;101961.47;5076348;28;20042;-90
2021/06/24 05:39:14;;;;;;;17.10;9.18;;;;;;;15.39;nan;101966.75;5075904;28;20020;-90
2021/06/24 05:41:39;;;;;;;23.58;9.68;;;;;;;15.45;nan;101964.13;5076205;28;20020;-90
2021/06/24 05:44:08;;;;;;;16.35;9.13;;;;;;;15.65;nan;101976.03;5076155;28;20028;-90
2021/06/24 05:46:33;;;;;;;25.25;9.80;;;;;;;15.73;nan;101968.53;5092365;28;20028;-93
2021/06/24 05:48:59;;;;;;;17.98;9.43;;;;;;;15.59;nan;101976.19;5084311;28;20382;-89
2021/06/24 05:51:25;;;;;;;15.35;9.25;;;;;;;15.57;nan;101971.00;5076233;28;20042;-89
2021/06/24 05:53:51;;;;;;;15.00;8.65;;;;;;;15.80;nan;101972.69;5076329;28;20477;-90
2021/06/24 05:56:19;;;;;;;16.55;8.38;;;;;;;15.94;nan;101975.78;5076361;28;20556;-89
2021/06/24 05:58:48;;;;;;;17.25;8.32;;;;;;;16.05;nan;101982.13;5075856;28;20027;-89
2021/06/24 06:01:15;;;;;;;18.20;8.30;;;;;;;16.17;nan;101990.91;5075705;28;20419;-89
2021/06/24 06:03:41;;;;;;;13.73;8.15;;;;;;;16.23;nan;101985.28;5075498;28;20020;-89
2021/06/24 06:06:07;;;;;;;19.35;8.32;;;;;;;16.20;nan;101990.41;5075988;28;20020;-89
2021/06/24 06:08:35;;;;;;;18.00;9.48;;;;;;;16.01;nan;101993.47;5071686;28;20036;-85
2021/06/24 06:11:01;;;;;;;22.58;9.05;;;;;;;16.09;nan;101994.06;5064737;28;20059;-86
2021/06/24 06:13:27;;;;;;;16.38;9.20;;;;;;;15.89;nan;101990.06;5063698;28;20062;-87
2021/06/24 06:15:55;;;;;;;13.63;9.30;;;;;;;15.98;nan;101983.16;5065532;28;20059;-87
2021/06/24 06:18:24;;;;;;;19.48;9.38;;;;;;;15.89;nan;101987.38;5058932;28;20028;-88
2021/06/24 06:20:50;;;;;;;23.40;9.50;;;;;;;16.06;nan;101981.88;5066933;28;20024;-86
2021/06/24 06:23:18;;;;;;;18.73;9.15;;;;;;;16.10;nan;101991.09;5067963;28;20024;-85
2021/06/24 06:25:47;;;;;;;14.75;10.05;;;;;;;15.85;nan;101994.34;5080324;28;20029;-87
2021/06/24 06:28:16;;;;;;;15.55;8.93;;;;;;;15.87;nan;101986.81;5067598;28;20069;-87
2021/06/24 06:30:42;;;;;;;21.75;9.02;;;;;;;15.98;nan;101990.44;5069728;28;20024;-87
2021/06/24 06:33:09;;;;;;;17.75;8.93;;;;;;;16.12;nan;101988.16;5062034;28;20563;-86
2021/06/24 06:35:35;;;;;;;16.52;8.55;;;;;;;16.15;nan;101988.44;5072725;28;20043;-89
2021/06/24 06:38:02;;;;;;;18.38;8.93;;;;;;;16.24;nan;101986.94;5067397;28;20024;-86
2021/06/24 06:40:28;;;;;;;19.77;8.30;;;;;;;16.33;nan;101979.16;5069134;28;20162;-88
2021/06/24 06:43:03;;;;;;;14.15;8.52;;;;;;;16.48;nan;101976.59;5068235;28;20071;-87
2021/06/24 06:45:30;;;;;;;13.98;9.35;;;;;;;16.62;nan;101977.78;5066652;28;20473;-88
2021/06/24 06:47:56;;;;;;;16.17;9.18;;;;;;;16.71;nan;101966.53;5059635;28;20035;-89
2021/06/24 06:50:22;;;;;;;16.73;8.88;;;;;;;16.74;nan;101966.03;5067594;28;20036;-89
2021/06/24 06:52:49;;;;;;;19.63;9.00;;;;;;;16.82;nan;101960.09;5059784;28;20123;-88
2021/06/24 06:55:15;;;;;;;15.93;8.65;;;;;;;16.92;nan;101961.00;5064894;28;20205;-89
2021/06/24 06:57:41;;;;;;;16.17;9.07;;;;;;;16.84;nan;101976.91;5062056;28;20058;-87
2021/06/24 07:00:11;;;;;;;18.67;9.35;;;;;;;16.73;nan;101983.34;5060878;28;20024;-88
2021/06/24 07:02:40;;;;;;;16.05;9.27;;;;;;;16.84;nan;101990.44;5064366;28;20027;-88
2021/06/24 07:05:07;;;;;;;17.42;9.05;;;;;;;17.02;nan;101981.91;5061644;28;20036;-89
2021/06/24 07:07:33;;;;;;;15.70;8.48;;;;;;;17.17;nan;101987.41;5066871;28;20038;-89
2021/06/24 07:13:19;;;;;;;15.93;8.30;;;;;;;17.45;nan;101980.81;5055857;28;20119;-87
2021/06/24 07:15:48;;;;;;;17.80;8.95;;;;;;;17.58;nan;101978.66;5063803;28;20047;-87
2021/06/24 07:18:14;;;;;;;14.00;9.48;;;;;;;17.53;nan;101977.56;5083835;28;20610;-88
2021/06/24 07:20:42;;;;;;;19.17;10.52;;;;;;;17.41;nan;101984.28;5072333;28;20023;-87
2021/06/24 07:23:08;;;;;;;16.08;10.15;;;;;;;17.37;nan;101978.56;5069068;28;20024;-87
2021/06/24 07:25:38;;;;;;;19.83;10.23;;;;;;;17.46;nan;101977.00;5054426;28;20053;-86
2021/06/24 07:28:04;;;;;;;16.58;9.52;;;;;;;17.40;nan;101988.06;5069463;28;20078;-87
2021/06/24 07:30:29;;;;;;;18.75;9.38;;;;;;;17.57;nan;101988.69;5079502;28;20032;-87
2021/06/24 07:32:57;;;;;;;14.00;9.30;;;;;;;17.69;nan;101985.78;5059992;28;20466;-88
2021/06/24 07:35:23;;;;;;;17.45;8.82;;;;;;;17.72;nan;101986.06;5068925;28;20482;-87
2021/06/24 07:37:49;;;;;;;16.45;9.18;;;;;;;17.93;nan;101997.78;5065923;28;20119;-88
2021/06/24 07:40:15;;;;;;;16.02;10.15;;;;;;;18.06;nan;102002.72;5065173;28;20111;-88
2021/06/24 07:42:41;;;;;;;18.77;11.48;;;;;;;18.01;nan;102002.72;5062657;28;20035;-88
2021/06/24 07:45:07;;;;;;;26.25;11.43;;;;;;;18.15;nan;102005.75;5069164;28;20016;-88
2021/06/24 07:47:33;;;;;;;28.20;12.77;;;;;;;18.19;nan;102012.25;5061923;28;20038;-87
2021/06/24 07:50:01;;;;;;;19.02;11.02;;;;;;;18.13;nan;102005.16;5063260;28;20020;-89
2021/06/24 07:52:29;;;;;;;16.90;10.25;;;;;;;18.02;nan;102003.53;5060535;28;20028;-89
2021/06/24 07:54:57;;;;;;;21.67;10.95;;;;;;;18.15;nan;102003.03;5066667;28;20153;-88
2021/06/24 07:57:28;;;;;;;22.30;12.55;;;;;;;18.26;nan;102001.13;5069551;28;20032;-91
2021/06/24 07:59:59;;;;;;;27.15;16.63;;;;;;;18.31;nan;102004.69;5081690;28;20063;-90
2021/06/24 08:02:29;;;;;;;34.80;19.05;;;;;;;18.35;nan;102002.25;5064347;28;20012;-90
2021/06/24 08:05:07;;;;;;;25.17;13.82;;;;;;;18.43;nan;102005.22;5070446;28;20076;-89
2021/06/24 08:07:44;;;;;;;;;;;;;;;;;;;;;
2021/06/24 08:10:16;;;;;;;20.35;11.70;;;;;;;18.62;nan;101994.63;5081106;28;20508;-88
2021/06/24 08:12:46;;;;;;;19.52;10.32;;;;;;;18.73;nan;101987.34;5069279;28;20110;-89
2021/06/24 08:15:14;;;;;;;17.08;10.23;;;;;;;18.88;nan;101987.34;5071541;28;20060;-89
2021/06/24 08:17:40;;;;;;;22.05;10.48;;;;;;;19.03;nan;101981.06;5066656;28;20111;-87
2021/06/24 08:20:07;;;;;;;17.25;9.82;;;;;;;19.18;nan;101978.31;5094294;28;20028;-87
2021/06/24 08:22:33;;;;;;;18.38;9.90;;;;;;;19.35;nan;101974.44;5071091;28;20086;-87
2021/06/24 08:25:01;;;;;;;19.30;10.82;;;;;;;19.45;nan;101977.97;5059356;28;20024;-88
2021/06/24 08:27:27;;;;;;;15.60;10.63;;;;;;;19.54;nan;101973.59;5062125;28;20036;-87
2021/06/24 08:29:55;;;;;;;19.77;11.70;;;;;;;19.65;nan;101970.84;5066614;28;20119;-87
2021/06/24 08:32:21;;;;;;;17.98;10.65;;;;;;;19.75;nan;101970.78;5065045;28;20712;-84
2021/06/24 08:34:48;;;;;;;18.90;10.70;;;;;;;19.78;nan;101964.78;5063190;28;20035;-89
2021/06/24 08:37:16;;;;;;;15.57;9.82;;;;;;;19.88;nan;101962.81;5070275;28;20024;-89
2021/06/24 08:39:43;;;;;;;22.73;10.25;;;;;;;20.00;nan;101957.03;5069208;28;20115;-88
2021/06/24 08:42:21;;;;;;;20.33;9.90;;;;;;;20.10;nan;101954.22;5071196;28;20046;-90
2021/06/24 08:44:59;;;;;;;18.65;10.27;;;;;;;20.07;nan;101956.72;5071308;28;20168;-89
2021/06/24 08:47:30;;;;;;;19.88;10.15;;;;;;;20.23;nan;101956.31;5073481;28;20047;-89
2021/06/24 08:50:00;;;;;;;20.23;11.02;;;;;;;20.33;nan;101955.44;5068262;28;20103;-89
2021/06/24 08:52:27;;;;;;;22.52;9.95;;;;;;;20.40;nan;101952.38;5072082;28;20023;-89
2021/06/24 08:54:55;;;;;;;19.90;9.95;;;;;;;20.22;nan;101956.59;5087324;28;20168;-91
2021/06/24 08:57:21;;;;;;;18.40;10.02;;;;;;;19.99;nan;101965.50;5071644;28;20642;-87
2021/06/24 08:59:47;;;;;;;17.42;9.80;;;;;;;20.08;nan;101961.88;5069200;28;20036;-91
2021/06/24 09:02:17;;;;;;;20.23;9.88;;;;;;;19.87;nan;101966.63;5074323;28;20107;-90
2021/06/24 09:04:48;;;;;;;15.35;9.35;;;;;;;19.89;nan;101963.63;5069592;28;20119;-86
2021/06/24 09:07:20;;;;;;;17.00;9.25;;;;;;;19.99;nan;101955.41;5068925;28;20048;-87
2021/06/24 09:09:54;;;;;;;17.05;10.85;;;;;;;20.04;nan;101958.09;5063526;28;20047;-86
2021/06/24 09:12:20;;;;;;;17.95;11.40;;;;;;;19.58;nan;101949.41;5064437;28;20024;-85
2021/06/24 09:14:53;;;;;;;19.40;10.85;;;;;;;19.64;nan;101950.19;5066381;28;20069;-86
2021/06/24 09:17:33;;;;;;;16.67;10.73;;;;;;;19.72;nan;101941.41;5066132;28;20093;-86
2021/06/24 09:20:24;;;;;;;22.50;10.50;;;;;;;19.84;nan;101942.72;5081506;28;20028;-89
2021/06/24 09:23:21;;;;;;;18.75;10.52;;;;;;;20.05;nan;101946.13;5068723;28;20032;-88
2021/06/24 09:25:52;;;;;;;16.75;9.98;;;;;;;20.25;nan;101955.22;5070822;28;20502;-85
2021/06/24 09:28:18;;;;;;;19.52;11.07;;;;;;;20.21;nan;101953.06;5064815;28;20486;-85
2021/06/24 09:31:22;;;;;;;21.77;11.15;;;;;;;20.22;nan;101960.16;5066082;28;20025;-91
2021/06/24 09:33:48;;;;;;;19.70;12.57;;;;;;;19.93;nan;101956.56;5071132;28;20060;-87
2021/06/24 09:36:51;;;;;;;21.30;12.00;;;;;;;19.88;nan;101959.28;5067308;28;20032;-86
2021/06/24 09:39:25;;;;;;;18.52;11.88;;;;;;;20.07;nan;101952.09;5084204;28;20111;-87
2021/06/24 09:42:14;;;;;;;21.30;11.95;;;;;;;20.27;nan;101942.97;5080087;28;20028;-87
2021/06/24 09:44:47;;;;;;;17.25;11.65;;;;;;;20.27;nan;101950.31;5068268;28;20032;-86
2021/06/24 09:47:18;;;;;;;14.73;10.82;;;;;;;20.35;nan;101950.53;5062414;28;20031;-86
2021/06/24 09:50:04;;;;;;;17.50;12.15;;;;;;;19.80;nan;101949.00;5064329;28;20020;-86
2021/06/24 09:52:55;;;;;;;18.75;11.38;;;;;;;20.22;nan;101954.69;5082878;28;20039;-88
2021/06/24 09:55:31;;;;;;;17.20;11.48;;;;;;;19.76;nan;101950.66;5059881;28;20016;-85
2021/06/24 09:58:24;;;;;;;;;;;;;;;;;;;;;
2021/06/24 10:00:53;;;;;;;19.83;13.00;;;;;;;19.81;nan;101956.06;5080264;28;20024;-87
2021/06/24 10:03:20;;;;;;;19.98;11.50;;;;;;;19.69;nan;101958.31;5067035;28;20080;-87
2021/06/24 10:05:49;;;;;;;15.55;12.05;;;;;;;20.03;nan;101961.91;5058484;28;20027;-87
2021/06/24 10:08:15;;;;;;;18.08;11.68;;;;;;;20.38;nan;101970.91;5081410;28;20516;-85
2021/06/24 10:10:44;;;;;;;16.88;11.50;;;;;;;20.59;nan;101958.78;5067305;28;20028;-85
2021/06/24 10:13:10;;;;;;;17.00;12.25;;;;;;;19.93;nan;101959.28;5077861;28;20082;-84
2021/06/24 10:15:37;;;;;;;15.88;10.85;;;;;;;19.99;nan;101949.16;5075753;28;20111;-85
2021/06/24 10:18:04;;;;;;;16.08;10.00;;;;;;;20.22;nan;101951.97;5071155;28;20024;-85
2021/06/24 10:20:31;;;;;;;15.05;10.80;;;;;;;20.05;nan;101954.28;5064119;28;20028;-85
2021/06/24 10:23:18;;;;;;;14.82;10.23;;;;;;;20.38;nan;101949.16;5075577;28;20035;-85
2021/06/24 10:25:48;;;;;;;18.13;11.05;;;;;;;20.13;nan;101953.69;5080014;28;20020;-85
2021/06/24 10:28:17;;;;;;;17.15;10.75;;;;;;;19.78;nan;101951.19;5058250;28;20051;-84
2021/06/24 10:30:43;;;;;;;14.00;9.93;;;;;;;19.79;nan;101944.66;5061616;28;20159;-85
2021/06/24 10:33:12;;;;;;;15.65;10.15;;;;;;;20.16;nan;101947.69;5066403;28;20020;-85
2021/06/24 10:35:40;;;;;;;14.73;9.60;;;;;;;20.32;nan;101950.28;5069775;28;20097;-85
2021/06/24 10:38:07;;;;;;;15.15;10.18;;;;;;;20.41;nan;101954.84;5059754;28;20425;-85
2021/06/24 10:40:38;;;;;;;12.88;9.68;;;;;;;20.66;nan;101947.59;5064849;28;20028;-85
2021/06/24 10:43:15;;;;;;;15.82;10.48;;;;;;;20.93;nan;101949.75;5066531;28;20049;-85
2021/06/24 10:45:44;;;;;;;14.20;10.15;;;;;;;20.39;nan;101946.13;5067929;28;20081;-84
2021/06/24 10:48:27;;;;;;;12.48;9.13;;;;;;;20.69;nan;101941.56;5063012;28;20040;-85
2021/06/24 10:51:03;;;;;;;13.57;9.95;;;;;;;20.62;nan;101947.31;5080438;28;20039;-85
2021/06/24 10:53:28;;;;;;;14.27;11.02;;;;;;;20.73;nan;101946.13;5074172;28;20111;-85
2021/06/24 10:55:55;;;;;;;13.23;10.98;;;;;;;20.69;nan;101945.09;5061771;28;20051;-85
2021/06/24 10:58:21;;;;;;;13.57;10.15;;;;;;;20.94;nan;101935.84;5080446;28;20046;-86
2021/06/24 11:00:50;;;;;;;13.10;9.63;;;;;;;21.18;nan;101930.38;5078146;28;20032;-85
2021/06/24 11:03:15;;;;;;;12.40;9.60;;;;;;;20.54;nan;101934.34;5078693;28;20085;-84
2021/06/24 11:05:43;;;;;;;15.93;9.60;;;;;;;20.39;nan;101937.97;5061147;28;20032;-85
2021/06/24 11:08:18;;;;;;;12.02;8.95;;;;;;;20.23;nan;101931.84;5062309;28;20489;-85
2021/06/24 11:11:36;;;;;;;12.30;8.30;;;;;;;20.45;nan;101919.72;5063576;28;20030;-89
2021/06/24 11:14:10;;;;;;;9.48;7.10;;;;;;;20.50;nan;101925.13;5081016;28;20486;-84
2021/06/24 11:16:45;;;;;;;8.82;7.20;;;;;;;20.69;nan;101930.66;5086497;28;20023;-88
2021/06/24 11:19:14;;;;;;;12.85;6.63;;;;;;;20.76;nan;101923.78;5060734;28;20028;-87
2021/06/24 11:21:39;;;;;;;10.05;6.65;;;;;;;19.97;nan;101927.69;5057013;28;20024;-86
2021/06/24 11:24:05;;;;;;;9.35;7.65;;;;;;;20.36;nan;101929.56;5060126;28;20062;-85
2021/06/24 11:26:46;;;;;;;11.02;7.10;;;;;;;20.64;nan;101931.50;5084030;28;20066;-85
2021/06/24 11:30:11;;;;;;;10.15;7.20;;;;;;;20.38;nan;101947.22;5069430;28;20093;-87
2021/06/24 11:33:32;;;;;;;7.88;6.88;;;;;;;20.39;nan;101937.16;5063088;28;20043;-88
2021/06/24 11:36:51;;;;;;;8.95;7.25;;;;;;;19.99;nan;101941.81;5072633;28;21984;-89
2021/06/24 11:39:54;;;;;;;9.85;7.15;;;;;;;20.23;nan;101925.56;5068659;28;20028;-88
2021/06/24 11:42:36;;;;;;;8.25;6.72;;;;;;;20.48;nan;101922.69;5059355;28;20062;-89
2021/06/24 11:45:05;;;;;;;8.82;6.63;;;;;;;20.79;nan;101922.38;5061938;28;20028;-88
2021/06/24 11:47:37;;;;;;;6.90;6.10;;;;;;;20.99;nan;101915.91;5062645;28;20020;-89
2021/06/24 12:03:03;;;;;;;9.15;7.13;;;;;;;20.55;nan;101924.25;5094063;28;20047;-88
2021/06/24 12:04:20;;;;;;;7.75;5.95;;;;;;;20.49;nan;101920.78;5089707;28;20021;-87